sensor_id;sensor_type;location;lat;lon;timestamp;temperature;humidity
53645;DHT22;39547;45.554;12.068;2024-01-25T00:05:10;2.80;91.10
53645;DHT22;39547;45.554;12.068;2024-01-25T00:11:14;2.80;91.20
53645;DHT22;39547;45.554;12.068;2024-01-25T00:17:15;2.70;91.10
53645;DHT22;39547;45.554;12.068;2024-01-25T00:23:17;2.70;91.20
53645;DHT22;39547;45.554;12.068;2024-01-25T00:29:21;2.70;91.20
53645;DHT22;39547;45.554;12.068;2024-01-25T00:35:24;2.70;91.20
53645;DHT22;39547;45.554;12.068;2024-01-25T00:41:27;2.70;91.20
53645;DHT22;39547;45.554;12.068;2024-01-25T00:47:33;2.70;91.20
53645;DHT22;39547;45.554;12.068;2024-01-25T00:53:36;2.60;91.10
53645;DHT22;39547;45.554;12.068;2024-01-25T00:59:38;2.60;91.20
53645;DHT22;39547;45.554;12.068;2024-01-25T01:05:40;2.50;91.20
53645;DHT22;39547;45.554;12.068;2024-01-25T01:11:42;2.50;91.10
53645;DHT22;39547;45.554;12.068;2024-01-25T01:17:47;2.50;91.20
53645;DHT22;39547;45.554;12.068;2024-01-25T01:23:49;2.40;91.10
53645;DHT22;39547;45.554;12.068;2024-01-25T01:29:53;2.40;91.20
53645;DHT22;39547;45.554;12.068;2024-01-25T01:35:54;2.40;91.20
53645;DHT22;39547;45.554;12.068;2024-01-25T01:41:56;2.40;91.20
53645;DHT22;39547;45.554;12.068;2024-01-25T01:48:00;2.40;91.20
53645;DHT22;39547;45.554;12.068;2024-01-25T01:54:02;2.40;91.20
53645;DHT22;39547;45.554;12.068;2024-01-25T02:00:10;2.30;91.10
53645;DHT22;39547;45.554;12.068;2024-01-25T02:06:15;2.30;90.90
53645;DHT22;39547;45.554;12.068;2024-01-25T02:12:17;2.20;90.90
53645;DHT22;39547;45.554;12.068;2024-01-25T02:18:20;2.20;90.80
53645;DHT22;39547;45.554;12.068;2024-01-25T02:24:21;2.20;90.90
53645;DHT22;39547;45.554;12.068;2024-01-25T02:30:24;2.20;90.90
53645;DHT22;39547;45.554;12.068;2024-01-25T02:36:26;2.10;90.90
53645;DHT22;39547;45.554;12.068;2024-01-25T02:42:27;2.10;90.90
53645;DHT22;39547;45.554;12.068;2024-01-25T02:48:29;2.10;90.90
53645;DHT22;39547;45.554;12.068;2024-01-25T02:54:30;2.10;91.00
53645;DHT22;39547;45.554;12.068;2024-01-25T03:00:35;2.10;91.10
53645;DHT22;39547;45.554;12.068;2024-01-25T03:06:37;2.10;91.10
53645;DHT22;39547;45.554;12.068;2024-01-25T03:12:40;2.10;91.20
53645;DHT22;39547;45.554;12.068;2024-01-25T03:18:42;2.10;91.10
53645;DHT22;39547;45.554;12.068;2024-01-25T03:24:44;2.10;91.20
53645;DHT22;39547;45.554;12.068;2024-01-25T03:30:45;2.10;91.10
53645;DHT22;39547;45.554;12.068;2024-01-25T03:36:47;2.10;91.10
53645;DHT22;39547;45.554;12.068;2024-01-25T03:42:49;2.10;91.10
53645;DHT22;39547;45.554;12.068;2024-01-25T03:48:52;2.10;91.20
53645;DHT22;39547;45.554;12.068;2024-01-25T03:54:55;2.10;91.20
53645;DHT22;39547;45.554;12.068;2024-01-25T04:00:57;2.10;91.20
53645;DHT22;39547;45.554;12.068;2024-01-25T04:06:59;2.00;91.10
53645;DHT22;39547;45.554;12.068;2024-01-25T04:13:01;2.10;91.30
53645;DHT22;39547;45.554;12.068;2024-01-25T04:19:03;2.10;91.20
53645;DHT22;39547;45.554;12.068;2024-01-25T04:25:04;2.00;91.30
53645;DHT22;39547;45.554;12.068;2024-01-25T04:31:06;2.00;91.30
53645;DHT22;39547;45.554;12.068;2024-01-25T04:37:08;2.00;91.40
53645;DHT22;39547;45.554;12.068;2024-01-25T04:43:10;2.10;91.50
53645;DHT22;39547;45.554;12.068;2024-01-25T04:49:12;2.10;91.50
53645;DHT22;39547;45.554;12.068;2024-01-25T04:55:14;2.10;91.50
53645;DHT22;39547;45.554;12.068;2024-01-25T05:01:17;2.10;91.30
53645;DHT22;39547;45.554;12.068;2024-01-25T05:07:19;2.10;91.20
53645;DHT22;39547;45.554;12.068;2024-01-25T05:13:22;2.00;91.20
53645;DHT22;39547;45.554;12.068;2024-01-25T05:19:25;2.00;91.40
53645;DHT22;39547;45.554;12.068;2024-01-25T05:25:28;2.00;91.40
53645;DHT22;39547;45.554;12.068;2024-01-25T05:31:29;2.00;91.40
53645;DHT22;39547;45.554;12.068;2024-01-25T05:37:33;2.00;91.40
53645;DHT22;39547;45.554;12.068;2024-01-25T05:43:35;1.90;91.40
53645;DHT22;39547;45.554;12.068;2024-01-25T05:49:37;1.90;91.50
53645;DHT22;39547;45.554;12.068;2024-01-25T05:55:39;1.90;91.50
53645;DHT22;39547;45.554;12.068;2024-01-25T06:01:41;2.00;91.50
53645;DHT22;39547;45.554;12.068;2024-01-25T06:07:43;2.00;91.60
53645;DHT22;39547;45.554;12.068;2024-01-25T06:13:47;2.00;91.60
53645;DHT22;39547;45.554;12.068;2024-01-25T06:19:48;2.00;91.60
53645;DHT22;39547;45.554;12.068;2024-01-25T06:25:51;2.00;91.50
53645;DHT22;39547;45.554;12.068;2024-01-25T06:31:52;2.00;91.60
53645;DHT22;39547;45.554;12.068;2024-01-25T06:37:54;2.00;91.50
53645;DHT22;39547;45.554;12.068;2024-01-25T06:43:56;2.00;91.60
53645;DHT22;39547;45.554;12.068;2024-01-25T06:49:58;2.00;91.60
53645;DHT22;39547;45.554;12.068;2024-01-25T06:55:59;2.00;91.60
53645;DHT22;39547;45.554;12.068;2024-01-25T07:02:01;1.90;91.50
53645;DHT22;39547;45.554;12.068;2024-01-25T07:08:05;1.90;91.50
53645;DHT22;39547;45.554;12.068;2024-01-25T07:14:12;2.00;91.80
53645;DHT22;39547;45.554;12.068;2024-01-25T07:20:14;2.10;91.90
53645;DHT22;39547;45.554;12.068;2024-01-25T07:26:19;2.20;92.00
53645;DHT22;39547;45.554;12.068;2024-01-25T07:32:21;2.20;92.10
53645;DHT22;39547;45.554;12.068;2024-01-25T07:38:25;2.30;92.20
53645;DHT22;39547;45.554;12.068;2024-01-25T07:44:30;2.40;92.10
53645;DHT22;39547;45.554;12.068;2024-01-25T07:50:32;2.50;92.40
53645;DHT22;39547;45.554;12.068;2024-01-25T07:56:36;2.70;92.60
53645;DHT22;39547;45.554;12.068;2024-01-25T08:02:38;2.80;92.60
53645;DHT22;39547;45.554;12.068;2024-01-25T08:08:44;2.90;92.50
53645;DHT22;39547;45.554;12.068;2024-01-25T08:14:47;3.20;92.70
53645;DHT22;39547;45.554;12.068;2024-01-25T08:20:49;3.30;92.60
53645;DHT22;39547;45.554;12.068;2024-01-25T08:26:54;3.50;92.60
53645;DHT22;39547;45.554;12.068;2024-01-25T08:32:55;3.70;92.70
53645;DHT22;39547;45.554;12.068;2024-01-25T08:38:57;4.00;92.60
53645;DHT22;39547;45.554;12.068;2024-01-25T08:44:59;4.20;92.50
53645;DHT22;39547;45.554;12.068;2024-01-25T08:51:03;4.50;92.60
53645;DHT22;39547;45.554;12.068;2024-01-25T08:57:06;4.70;92.70
53645;DHT22;39547;45.554;12.068;2024-01-25T09:03:11;5.00;92.80
53645;DHT22;39547;45.554;12.068;2024-01-25T09:09:12;5.20;92.90
53645;DHT22;39547;45.554;12.068;2024-01-25T09:15:15;5.60;92.80
53645;DHT22;39547;45.554;12.068;2024-01-25T09:21:17;5.80;92.80
53645;DHT22;39547;45.554;12.068;2024-01-25T09:27:19;6.20;92.70
53645;DHT22;39547;45.554;12.068;2024-01-25T09:33:21;6.40;92.70
53645;DHT22;39547;45.554;12.068;2024-01-25T09:39:27;6.60;92.10
53645;DHT22;39547;45.554;12.068;2024-01-25T09:45:30;6.80;92.20
53645;DHT22;39547;45.554;12.068;2024-01-25T09:51:53;7.10;92.00
53645;DHT22;39547;45.554;12.068;2024-01-25T09:58:03;7.20;92.00
53645;DHT22;39547;45.554;12.068;2024-01-25T10:04:09;7.40;91.80
53645;DHT22;39547;45.554;12.068;2024-01-25T10:10:12;7.60;91.00
53645;DHT22;39547;45.554;12.068;2024-01-25T10:16:16;7.70;91.10
53645;DHT22;39547;45.554;12.068;2024-01-25T10:22:18;7.90;91.30
53645;DHT22;39547;45.554;12.068;2024-01-25T10:28:20;8.10;91.00
53645;DHT22;39547;45.554;12.068;2024-01-25T10:34:23;8.20;91.00
53645;DHT22;39547;45.554;12.068;2024-01-25T10:40:28;8.40;90.70
53645;DHT22;39547;45.554;12.068;2024-01-25T10:46:31;8.60;90.80
53645;DHT22;39547;45.554;12.068;2024-01-25T10:52:37;8.70;90.50
53645;DHT22;39547;45.554;12.068;2024-01-25T10:58:41;8.90;90.50
53645;DHT22;39547;45.554;12.068;2024-01-25T11:04:55;9.00;89.60
53645;DHT22;39547;45.554;12.068;2024-01-25T11:10:59;9.20;88.60
53645;DHT22;39547;45.554;12.068;2024-01-25T11:17:19;9.30;89.10
53645;DHT22;39547;45.554;12.068;2024-01-25T11:23:22;9.50;89.40
53645;DHT22;39547;45.554;12.068;2024-01-25T11:29:24;9.60;89.20
53645;DHT22;39547;45.554;12.068;2024-01-25T11:35:28;9.70;89.00
53645;DHT22;39547;45.554;12.068;2024-01-25T11:41:33;9.80;88.90
53645;DHT22;39547;45.554;12.068;2024-01-25T11:47:35;9.90;89.00
53645;DHT22;39547;45.554;12.068;2024-01-25T11:53:39;10.00;88.60
53645;DHT22;39547;45.554;12.068;2024-01-25T11:59:41;10.20;88.70
53645;DHT22;39547;45.554;12.068;2024-01-25T12:05:43;10.30;88.70
53645;DHT22;39547;45.554;12.068;2024-01-25T12:11:49;10.50;88.40
53645;DHT22;39547;45.554;12.068;2024-01-25T12:17:53;10.60;88.50
53645;DHT22;39547;45.554;12.068;2024-01-25T12:23:55;10.70;88.10
53645;DHT22;39547;45.554;12.068;2024-01-25T12:29:59;10.90;88.00
53645;DHT22;39547;45.554;12.068;2024-01-25T12:36:03;11.00;87.80
53645;DHT22;39547;45.554;12.068;2024-01-25T12:42:05;11.10;87.20
53645;DHT22;39547;45.554;12.068;2024-01-25T12:48:07;11.20;87.10
53645;DHT22;39547;45.554;12.068;2024-01-25T12:54:10;11.20;87.10
53645;DHT22;39547;45.554;12.068;2024-01-25T13:00:14;11.30;87.40
53645;DHT22;39547;45.554;12.068;2024-01-25T13:06:16;11.30;87.50
53645;DHT22;39547;45.554;12.068;2024-01-25T13:12:17;11.40;87.80
53645;DHT22;39547;45.554;12.068;2024-01-25T13:18:20;11.40;87.80
53645;DHT22;39547;45.554;12.068;2024-01-25T13:24:23;11.40;88.10
53645;DHT22;39547;45.554;12.068;2024-01-25T13:30:24;11.30;87.20
53645;DHT22;39547;45.554;12.068;2024-01-25T13:36:26;11.40;88.10
53645;DHT22;39547;45.554;12.068;2024-01-25T13:42:28;11.30;88.40
53645;DHT22;39547;45.554;12.068;2024-01-25T13:48:33;11.20;88.50
53645;DHT22;39547;45.554;12.068;2024-01-25T13:54:37;11.30;88.30
53645;DHT22;39547;45.554;12.068;2024-01-25T14:00:40;11.20;88.50
53645;DHT22;39547;45.554;12.068;2024-01-25T14:06:43;11.20;88.70
53645;DHT22;39547;45.554;12.068;2024-01-25T14:12:44;11.10;88.90
53645;DHT22;39547;45.554;12.068;2024-01-25T14:18:49;11.00;88.90
53645;DHT22;39547;45.554;12.068;2024-01-25T14:24:52;11.00;89.00
53645;DHT22;39547;45.554;12.068;2024-01-25T14:30:54;11.00;89.10
53645;DHT22;39547;45.554;12.068;2024-01-25T14:36:58;10.90;89.20
53645;DHT22;39547;45.554;12.068;2024-01-25T14:43:00;10.80;89.30
53645;DHT22;39547;45.554;12.068;2024-01-25T14:49:04;10.80;89.40
53645;DHT22;39547;45.554;12.068;2024-01-25T14:55:06;10.80;89.30
53645;DHT22;39547;45.554;12.068;2024-01-25T15:01:11;10.80;89.30
53645;DHT22;39547;45.554;12.068;2024-01-25T15:07:13;10.80;89.10
53645;DHT22;39547;45.554;12.068;2024-01-25T15:13:17;10.70;89.30
53645;DHT22;39547;45.554;12.068;2024-01-25T15:19:19;10.60;89.40
53645;DHT22;39547;45.554;12.068;2024-01-25T15:25:22;10.50;89.60
53645;DHT22;39547;45.554;12.068;2024-01-25T15:31:25;10.30;89.70
53645;DHT22;39547;45.554;12.068;2024-01-25T15:37:27;10.20;89.80
53645;DHT22;39547;45.554;12.068;2024-01-25T15:43:28;10.10;89.80
53645;DHT22;39547;45.554;12.068;2024-01-25T15:49:34;10.00;89.80
53645;DHT22;39547;45.554;12.068;2024-01-25T15:55:36;9.70;89.90
53645;DHT22;39547;45.554;12.068;2024-01-25T16:01:39;9.50;90.20
53645;DHT22;39547;45.554;12.068;2024-01-25T16:07:46;9.20;90.40
53645;DHT22;39547;45.554;12.068;2024-01-25T16:13:49;9.20;90.60
53645;DHT22;39547;45.554;12.068;2024-01-25T16:19:51;8.90;90.70
53645;DHT22;39547;45.554;12.068;2024-01-25T16:25:53;8.80;90.90
53645;DHT22;39547;45.554;12.068;2024-01-25T16:31:55;8.70;91.10
53645;DHT22;39547;45.554;12.068;2024-01-25T16:37:58;8.60;91.20
53645;DHT22;39547;45.554;12.068;2024-01-25T16:44:00;8.40;91.20
53645;DHT22;39547;45.554;12.068;2024-01-25T16:50:06;8.30;91.30
53645;DHT22;39547;45.554;12.068;2024-01-25T16:56:08;8.30;91.40
53645;DHT22;39547;45.554;12.068;2024-01-25T17:02:10;8.20;91.50
53645;DHT22;39547;45.554;12.068;2024-01-25T17:08:12;8.20;91.50
53645;DHT22;39547;45.554;12.068;2024-01-25T17:14:16;8.10;91.60
53645;DHT22;39547;45.554;12.068;2024-01-25T17:20:18;8.00;91.60
53645;DHT22;39547;45.554;12.068;2024-01-25T17:26:21;7.90;91.60
53645;DHT22;39547;45.554;12.068;2024-01-25T17:32:26;7.80;91.60
53645;DHT22;39547;45.554;12.068;2024-01-25T17:38:28;7.70;91.70
53645;DHT22;39547;45.554;12.068;2024-01-25T17:44:30;7.70;91.70
53645;DHT22;39547;45.554;12.068;2024-01-25T17:50:32;7.50;91.70
53645;DHT22;39547;45.554;12.068;2024-01-25T17:56:40;7.50;91.70
53645;DHT22;39547;45.554;12.068;2024-01-25T18:02:44;7.30;91.70
53645;DHT22;39547;45.554;12.068;2024-01-25T18:08:45;7.20;91.70
53645;DHT22;39547;45.554;12.068;2024-01-25T18:14:47;7.20;91.80
53645;DHT22;39547;45.554;12.068;2024-01-25T18:20:48;7.20;91.80
53645;DHT22;39547;45.554;12.068;2024-01-25T18:26:51;7.10;91.80
53645;DHT22;39547;45.554;12.068;2024-01-25T18:32:53;7.10;91.80
53645;DHT22;39547;45.554;12.068;2024-01-25T18:38:58;7.00;91.70
53645;DHT22;39547;45.554;12.068;2024-01-25T18:45:04;6.90;91.80
53645;DHT22;39547;45.554;12.068;2024-01-25T18:51:08;6.90;91.80
53645;DHT22;39547;45.554;12.068;2024-01-25T18:57:12;6.80;91.70
53645;DHT22;39547;45.554;12.068;2024-01-25T19:03:14;6.70;91.70
53645;DHT22;39547;45.554;12.068;2024-01-25T19:09:16;6.70;91.70
53645;DHT22;39547;45.554;12.068;2024-01-25T19:15:18;6.60;91.70
53645;DHT22;39547;45.554;12.068;2024-01-25T19:21:21;6.60;91.80
53645;DHT22;39547;45.554;12.068;2024-01-25T19:27:23;6.50;91.70
53645;DHT22;39547;45.554;12.068;2024-01-25T19:33:25;6.50;91.60
53645;DHT22;39547;45.554;12.068;2024-01-25T19:39:28;6.40;91.50
53645;DHT22;39547;45.554;12.068;2024-01-25T19:45:30;6.30;91.40
53645;DHT22;39547;45.554;12.068;2024-01-25T19:51:32;6.20;91.40
53645;DHT22;39547;45.554;12.068;2024-01-25T19:57:35;6.20;91.40
53645;DHT22;39547;45.554;12.068;2024-01-25T20:03:41;6.10;91.40
53645;DHT22;39547;45.554;12.068;2024-01-25T20:09:44;6.00;91.40
53645;DHT22;39547;45.554;12.068;2024-01-25T20:15:47;5.90;91.30
53645;DHT22;39547;45.554;12.068;2024-01-25T20:21:49;5.80;91.40
53645;DHT22;39547;45.554;12.068;2024-01-25T20:27:52;5.70;91.40
53645;DHT22;39547;45.554;12.068;2024-01-25T20:33:54;5.70;91.30
53645;DHT22;39547;45.554;12.068;2024-01-25T20:39:56;5.70;91.30
53645;DHT22;39547;45.554;12.068;2024-01-25T20:45:59;5.60;91.30
53645;DHT22;39547;45.554;12.068;2024-01-25T20:52:01;5.50;91.30
53645;DHT22;39547;45.554;12.068;2024-01-25T20:58:03;5.40;91.30
53645;DHT22;39547;45.554;12.068;2024-01-25T21:04:07;5.40;91.30
53645;DHT22;39547;45.554;12.068;2024-01-25T21:10:10;5.30;91.30
53645;DHT22;39547;45.554;12.068;2024-01-25T21:16:14;5.30;91.20
53645;DHT22;39547;45.554;12.068;2024-01-25T21:22:17;5.20;91.20
53645;DHT22;39547;45.554;12.068;2024-01-25T21:28:21;5.20;91.20
53645;DHT22;39547;45.554;12.068;2024-01-25T21:34:22;5.20;91.20
53645;DHT22;39547;45.554;12.068;2024-01-25T21:40:24;5.10;91.20
53645;DHT22;39547;45.554;12.068;2024-01-25T21:46:27;5.10;91.20
53645;DHT22;39547;45.554;12.068;2024-01-25T21:52:30;5.00;91.20
53645;DHT22;39547;45.554;12.068;2024-01-25T21:58:31;4.90;91.10
53645;DHT22;39547;45.554;12.068;2024-01-25T22:04:35;4.90;91.10
53645;DHT22;39547;45.554;12.068;2024-01-25T22:10:36;4.90;91.20
53645;DHT22;39547;45.554;12.068;2024-01-25T22:16:41;4.80;91.20
53645;DHT22;39547;45.554;12.068;2024-01-25T22:22:43;4.80;91.10
53645;DHT22;39547;45.554;12.068;2024-01-25T22:28:44;4.70;91.10
53645;DHT22;39547;45.554;12.068;2024-01-25T22:34:46;4.70;91.10
53645;DHT22;39547;45.554;12.068;2024-01-25T22:40:48;4.70;91.00
53645;DHT22;39547;45.554;12.068;2024-01-25T22:46:49;4.60;91.20
53645;DHT22;39547;45.554;12.068;2024-01-25T22:52:52;4.60;91.20
53645;DHT22;39547;45.554;12.068;2024-01-25T22:58:53;4.50;91.10
53645;DHT22;39547;45.554;12.068;2024-01-25T23:04:55;4.50;90.90
53645;DHT22;39547;45.554;12.068;2024-01-25T23:10:56;4.40;91.00
53645;DHT22;39547;45.554;12.068;2024-01-25T23:16:58;4.40;91.00
53645;DHT22;39547;45.554;12.068;2024-01-25T23:23:00;4.30;91.00
53645;DHT22;39547;45.554;12.068;2024-01-25T23:29:01;4.30;91.00
53645;DHT22;39547;45.554;12.068;2024-01-25T23:35:03;4.20;90.80
53645;DHT22;39547;45.554;12.068;2024-01-25T23:41:08;4.20;90.80
53645;DHT22;39547;45.554;12.068;2024-01-25T23:47:09;4.10;90.90
53645;DHT22;39547;45.554;12.068;2024-01-25T23:53:11;4.10;90.80
53645;DHT22;39547;45.554;12.068;2024-01-25T23:59:14;4.00;90.80
